createdAt,value
2023-04-06T00:00:20.019Z,94.12
2023-04-06T00:02:48.580Z,94.25
2023-04-06T00:05:16.896Z,94.51
2023-04-06T00:07:44.928Z,94.93
2023-04-06T00:10:13.431Z,95.24
2023-04-06T00:12:41.885Z,95.12
2023-04-06T00:15:11.255Z,95.20
2023-04-06T00:17:40.878Z,95.36
2023-04-06T00:20:10.110Z,95.20
2023-04-06T00:22:38.479Z,94.80
2023-04-06T00:25:07.718Z,94.68
2023-04-06T00:27:36.148Z,95.00
2023-04-06T00:30:05.775Z,94.76
2023-04-06T00:32:34.253Z,95.18
2023-04-06T00:35:06.612Z,95.23
2023-04-06T00:37:34.844Z,95.34
2023-04-06T00:40:03.347Z,95.16
2023-04-06T00:42:31.784Z,95.06
2023-04-06T00:45:02.170Z,95.34
2023-04-06T00:47:31.295Z,95.30
2023-04-06T00:49:59.840Z,95.04
2023-04-06T00:52:29.981Z,94.70
2023-04-06T00:54:58.510Z,94.46
2023-04-06T00:57:26.916Z,94.46
2023-04-06T00:59:57.372Z,94.56
2023-04-06T01:02:25.928Z,94.78
2023-04-06T01:04:56.389Z,94.39
2023-04-06T01:07:46.575Z,94.72
2023-04-06T01:10:26.058Z,94.39
2023-04-06T01:12:59.127Z,94.10
2023-04-06T01:15:45.072Z,94.19
2023-04-06T01:18:17.774Z,93.92
2023-04-06T01:20:57.025Z,93.76
2023-04-06T01:23:29.915Z,93.81
2023-04-06T01:25:58.243Z,94.03
2023-04-06T01:28:29.609Z,94.46
2023-04-06T01:31:10.530Z,94.96
2023-04-06T01:33:46.481Z,95.01
2023-04-06T01:36:18.717Z,94.81
2023-04-06T01:38:53.631Z,94.86
2023-04-06T01:41:27.964Z,94.94
2023-04-06T01:43:57.305Z,94.54
2023-04-06T01:46:29.096Z,94.33
2023-04-06T01:48:57.718Z,94.57
2023-04-06T01:51:34.456Z,94.20
2023-04-06T01:54:06.564Z,94.54
2023-04-06T01:56:53.794Z,94.94
2023-04-06T01:59:43.709Z,94.72
2023-04-06T02:02:20.140Z,94.69
2023-04-06T02:04:57.589Z,95.04
2023-04-06T02:07:26.012Z,95.20
2023-04-06T02:09:57.738Z,94.80
2023-04-06T02:12:34.671Z,94.39
2023-04-06T02:15:04.406Z,94.23
2023-04-06T02:17:33.165Z,94.44
2023-04-06T02:20:01.777Z,94.37
2023-04-06T02:22:29.984Z,94.05
2023-04-06T02:24:59.801Z,93.52
2023-04-06T02:27:28.417Z,94.25
2023-04-06T02:29:56.511Z,94.84
2023-04-06T02:32:25.409Z,95.01
2023-04-06T02:34:54.410Z,95.21
2023-04-06T02:37:25.065Z,95.05
2023-04-06T02:39:54.082Z,94.93
2023-04-06T02:42:24.244Z,94.61
2023-04-06T02:44:54.018Z,94.72
2023-04-06T02:47:26.422Z,95.15
2023-04-06T02:49:54.694Z,95.27
2023-04-06T02:52:23.120Z,95.14
2023-04-06T02:54:52.323Z,94.98
2023-04-06T02:57:28.363Z,95.24
2023-04-06T02:59:56.961Z,94.91
2023-04-06T03:02:32.798Z,94.60
2023-04-06T03:05:09.362Z,94.78
2023-04-06T03:07:41.841Z,94.76
2023-04-06T03:10:15.957Z,94.14
2023-04-06T03:12:46.927Z,94.61
2023-04-06T03:15:19.147Z,94.53
2023-04-06T03:17:52.761Z,93.58
2023-04-06T03:20:43.964Z,93.68
2023-04-06T03:23:12.655Z,94.47
2023-04-06T03:25:43.809Z,94.82
2023-04-06T03:28:18.171Z,94.53
2023-04-06T03:30:52.423Z,94.74
2023-04-06T03:33:29.826Z,94.54
2023-04-06T03:35:58.772Z,94.33
2023-04-06T03:38:28.341Z,95.14
2023-04-06T03:40:57.052Z,94.64
2023-04-06T03:43:30.085Z,94.77
2023-04-06T03:45:58.543Z,94.95
2023-04-06T03:48:26.775Z,94.93
2023-04-06T03:50:55.340Z,95.01
2023-04-06T03:53:23.546Z,95.02
2023-04-06T03:55:52.012Z,94.92
2023-04-06T03:58:20.070Z,94.89
2023-04-06T04:00:49.688Z,94.65
2023-04-06T04:03:18.109Z,94.27
2023-04-06T04:05:46.639Z,94.50
2023-04-06T04:08:15.544Z,94.44
2023-04-06T04:10:43.838Z,94.70
2023-04-06T04:13:12.035Z,95.00
2023-04-06T04:15:40.598Z,95.16
2023-04-06T04:18:10.453Z,95.51
2023-04-06T04:20:38.682Z,94.95
2023-04-06T04:23:07.119Z,94.51
2023-04-06T04:25:36.566Z,94.96
2023-04-06T04:28:05.336Z,95.67
2023-04-06T04:30:33.940Z,95.89
2023-04-06T04:33:02.314Z,95.85
2023-04-06T04:35:32.421Z,95.79
2023-04-06T04:38:01.133Z,95.60
2023-04-06T04:40:29.589Z,94.78
2023-04-06T04:43:06.454Z,94.19
2023-04-06T04:45:36.579Z,94.47
2023-04-06T04:48:20.222Z,94.26
2023-04-06T04:51:06.781Z,94.15
2023-04-06T04:53:48.794Z,94.67
2023-04-06T04:56:23.087Z,94.76
2023-04-06T04:58:56.079Z,94.83
2023-04-06T05:01:24.927Z,95.10
2023-04-06T05:03:53.758Z,95.04
2023-04-06T05:06:24.106Z,94.93
2023-04-06T05:08:53.122Z,94.89
2023-04-06T05:11:22.611Z,94.95
2023-04-06T05:13:58.906Z,94.90
2023-04-06T05:16:27.319Z,94.68
2023-04-06T05:18:57.925Z,94.39
2023-04-06T05:21:40.269Z,94.29
2023-04-06T05:25:23.751Z,94.41
2023-04-06T05:27:57.798Z,94.35
2023-04-06T05:30:31.294Z,94.34
2023-04-06T05:33:01.646Z,93.97
2023-04-06T05:35:36.913Z,94.05
2023-04-06T05:38:13.334Z,93.78
2023-04-06T05:40:42.280Z,93.08
2023-04-06T05:43:14.585Z,93.06
2023-04-06T05:45:47.060Z,92.45
2023-04-06T05:48:15.749Z,92.72
2023-04-06T05:50:43.895Z,92.88
2023-04-06T05:53:17.336Z,92.77
2023-04-06T05:55:53.282Z,92.77
2023-04-06T05:58:23.805Z,92.95
2023-04-06T06:00:59.127Z,93.14
2023-04-06T06:03:29.118Z,92.83
2023-04-06T06:06:05.199Z,92.98
2023-04-06T06:08:52.462Z,92.80
2023-04-06T06:11:21.807Z,92.49
2023-04-06T06:13:51.866Z,92.46
2023-04-06T06:16:20.907Z,91.82
2023-04-06T06:18:50.945Z,90.52
2023-04-06T06:21:19.207Z,90.77
2023-04-06T06:23:49.253Z,89.08
2023-04-06T06:26:23.253Z,87.70
2023-04-06T06:28:51.785Z,87.99
2023-04-06T06:31:21.788Z,87.16
2023-04-06T06:33:52.272Z,86.58
2023-04-06T06:36:22.235Z,86.66
2023-04-06T06:38:51.063Z,85.00
2023-04-06T06:41:23.205Z,85.30
2023-04-06T06:43:52.091Z,85.28
2023-04-06T06:46:21.082Z,84.77
2023-04-06T06:48:49.775Z,84.98
2023-04-06T06:51:17.898Z,83.77
2023-04-06T06:53:46.576Z,83.69
2023-04-06T06:56:14.921Z,83.49
2023-04-06T06:58:44.972Z,82.97
2023-04-06T07:01:13.675Z,81.67
2023-04-06T07:03:42.285Z,82.12
2023-04-06T07:06:10.699Z,77.14
2023-04-06T07:08:42.149Z,55.48
2023-04-06T07:11:11.471Z,43.06
2023-04-06T07:13:40.563Z,38.57
2023-04-06T07:16:11.788Z,31.57
2023-04-06T07:18:40.892Z,35.25
2023-04-06T07:21:12.657Z,34.91
2023-04-06T07:23:42.453Z,35.92
2023-04-06T07:26:10.566Z,36.00
2023-04-06T07:28:39.392Z,32.67
2023-04-06T07:31:08.217Z,38.27
2023-04-06T07:33:38.297Z,33.61
2023-04-06T07:36:07.184Z,31.03
2023-04-06T07:38:35.806Z,37.06
2023-04-06T07:41:05.207Z,34.87
2023-04-06T07:43:34.286Z,33.29
2023-04-06T07:46:03.372Z,30.45
2023-04-06T07:48:31.497Z,27.69
2023-04-06T07:51:05.423Z,31.86
2023-04-06T07:53:39.510Z,29.76
2023-04-06T07:56:08.241Z,27.46
2023-04-06T07:58:36.593Z,32.08
2023-04-06T08:01:05.158Z,26.68
2023-04-06T08:03:35.978Z,31.98
2023-04-06T08:06:06.585Z,31.05
2023-04-06T08:08:35.131Z,32.40
2023-04-06T08:11:04.658Z,29.75
2023-04-06T08:13:32.759Z,28.08
2023-04-06T08:16:01.840Z,25.22
2023-04-06T08:18:31.059Z,22.26
2023-04-06T08:20:59.346Z,21.35
2023-04-06T08:23:29.329Z,26.39
2023-04-06T08:25:57.690Z,28.32
2023-04-06T08:28:26.006Z,30.62
2023-04-06T08:30:54.438Z,28.99
2023-04-06T08:33:25.049Z,26.29
2023-04-06T08:35:53.467Z,26.85
2023-04-06T08:38:21.587Z,25.86
2023-04-06T08:40:52.919Z,25.96
2023-04-06T08:43:24.090Z,25.58
2023-04-06T08:45:53.130Z,25.46
2023-04-06T08:48:23.059Z,28.59
2023-04-06T08:50:52.173Z,30.61
2023-04-06T08:53:23.666Z,26.89
2023-04-06T08:55:53.985Z,25.25
2023-04-06T08:58:31.497Z,22.51
2023-04-06T09:01:10.533Z,26.09
2023-04-06T09:03:40.791Z,25.75
2023-04-06T09:06:10.702Z,26.41
2023-04-06T09:08:41.318Z,28.37
2023-04-06T09:11:11.461Z,27.34
2023-04-06T09:13:50.798Z,25.78
2023-04-06T09:16:19.831Z,24.39
2023-04-06T09:18:48.844Z,23.60
2023-04-06T09:21:21.044Z,23.96
2023-04-06T09:24:01.086Z,23.47
2023-04-06T09:26:31.440Z,23.64
2023-04-06T09:29:02.117Z,24.44
2023-04-06T09:31:34.051Z,24.21
2023-04-06T09:34:04.257Z,28.72
2023-04-06T09:36:33.852Z,29.16
2023-04-06T09:39:04.555Z,28.12
2023-04-06T09:41:36.718Z,25.72
2023-04-06T09:44:07.193Z,25.20
2023-04-06T09:46:55.024Z,24.66
2023-04-06T09:49:29.521Z,28.16
2023-04-06T09:52:01.664Z,25.72
2023-04-06T09:54:32.509Z,26.75
2023-04-06T09:57:08.991Z,30.83
2023-04-06T09:59:46.678Z,32.67
2023-04-06T10:02:28.785Z,32.26
2023-04-06T10:05:01.113Z,32.55
2023-04-06T10:07:29.850Z,29.97
2023-04-06T10:09:58.670Z,28.33
2023-04-06T10:12:28.442Z,27.70
2023-04-06T10:14:59.021Z,29.27
2023-04-06T10:17:28.290Z,26.49
2023-04-06T10:20:04.722Z,26.54
2023-04-06T10:22:41.541Z,26.10
2023-04-06T10:25:11.253Z,26.78
2023-04-06T10:27:40.848Z,27.38
2023-04-06T10:30:09.908Z,32.64
2023-04-06T10:32:39.549Z,28.25
2023-04-06T10:35:09.663Z,28.69
2023-04-06T10:37:54.522Z,29.79
2023-04-06T10:40:26.437Z,32.96
2023-04-06T10:42:58.233Z,32.15
2023-04-06T10:45:28.622Z,33.58
2023-04-06T10:47:57.773Z,34.52
2023-04-06T10:50:26.476Z,36.85
2023-04-06T10:53:02.305Z,37.34
2023-04-06T10:55:31.843Z,36.87
2023-04-06T10:58:01.552Z,36.35
2023-04-06T11:00:39.719Z,38.40
2023-04-06T11:03:16.465Z,36.27
2023-04-06T11:05:48.121Z,35.67
2023-04-06T11:08:28.014Z,35.60
2023-04-06T11:11:07.601Z,37.01
2023-04-06T11:13:45.304Z,35.02
2023-04-06T11:16:25.860Z,33.86
2023-04-06T11:18:57.204Z,35.11
2023-04-06T11:21:37.798Z,34.98
2023-04-06T11:24:10.917Z,34.08
2023-04-06T11:26:44.498Z,33.61
2023-04-06T11:29:15.735Z,33.83
2023-04-06T11:31:46.802Z,32.73
2023-04-06T11:34:18.347Z,32.63
2023-04-06T11:36:48.719Z,33.33
2023-04-06T11:39:21.776Z,32.25
2023-04-06T11:41:51.394Z,33.28
2023-04-06T11:44:33.740Z,31.68
2023-04-06T11:47:03.953Z,31.53
2023-04-06T11:49:33.483Z,31.38
2023-04-06T11:52:02.840Z,29.95
2023-04-06T11:54:35.901Z,29.27
2023-04-06T11:57:05.433Z,28.43
2023-04-06T11:59:35.347Z,28.49
2023-04-06T12:02:04.756Z,30.91
2023-04-06T12:04:34.245Z,31.55
2023-04-06T12:07:02.932Z,31.40
2023-04-06T12:09:32.018Z,32.89
2023-04-06T12:12:00.188Z,35.31
2023-04-06T12:14:28.756Z,34.00
2023-04-06T12:16:58.581Z,34.03
2023-04-06T12:19:27.151Z,34.38
2023-04-06T12:21:56.070Z,33.00
2023-04-06T12:24:24.680Z,32.58
2023-04-06T12:26:59.573Z,33.77
2023-04-06T12:29:35.585Z,35.95
2023-04-06T12:32:06.092Z,35.14
2023-04-06T12:34:34.318Z,34.51
2023-04-06T12:37:03.011Z,33.87
2023-04-06T12:39:32.100Z,33.45
2023-04-06T12:42:00.430Z,34.64
2023-04-06T12:44:28.917Z,32.39
2023-04-06T12:46:58.195Z,32.02
2023-04-06T12:49:28.653Z,33.01
2023-04-06T12:51:57.227Z,36.23
2023-04-06T12:54:27.787Z,33.86
2023-04-06T12:56:56.890Z,34.05
2023-04-06T12:59:26.263Z,33.93
2023-04-06T13:01:54.996Z,33.34
2023-04-06T13:04:23.854Z,36.42
2023-04-06T13:06:53.497Z,30.25
2023-04-06T13:09:21.839Z,36.37
2023-04-06T13:11:50.641Z,33.75
2023-04-06T13:14:19.934Z,33.29
2023-04-06T13:16:48.473Z,32.49
2023-04-06T13:19:17.676Z,31.15
2023-04-06T13:21:46.043Z,29.73
2023-04-06T13:24:17.257Z,28.42
2023-04-06T13:26:46.176Z,28.21
2023-04-06T13:29:14.467Z,29.41
2023-04-06T13:31:43.058Z,30.77
2023-04-06T13:34:11.726Z,30.73
2023-04-06T13:36:42.465Z,32.04
2023-04-06T13:39:11.070Z,30.35
2023-04-06T13:41:41.183Z,30.43
2023-04-06T13:44:09.305Z,29.57
2023-04-06T13:46:37.359Z,29.26
2023-04-06T13:49:06.502Z,30.79
2023-04-06T13:51:34.851Z,32.15
2023-04-06T13:54:03.163Z,29.74
2023-04-06T13:56:31.330Z,31.27
2023-04-06T13:59:00.971Z,30.57
2023-04-06T14:01:29.121Z,30.83
2023-04-06T14:03:57.526Z,29.20
2023-04-06T14:06:31.774Z,29.55
2023-04-06T14:09:03.484Z,28.94
2023-04-06T14:11:32.791Z,28.94
2023-04-06T14:14:03.873Z,33.38
2023-04-06T14:16:32.486Z,29.98
2023-04-06T14:19:00.741Z,33.62
2023-04-06T14:21:29.256Z,33.24
2023-04-06T14:23:59.614Z,32.04
2023-04-06T14:26:28.961Z,31.54
2023-04-06T14:28:57.654Z,32.28
2023-04-06T14:31:27.520Z,33.55
2023-04-06T14:33:55.851Z,33.76
2023-04-06T14:36:24.377Z,32.57
2023-04-06T14:38:53.443Z,33.06
2023-04-06T14:41:23.765Z,33.02
2023-04-06T14:43:53.747Z,36.28
2023-04-06T14:46:22.941Z,36.38
2023-04-06T14:48:52.912Z,34.97
2023-04-06T14:51:21.654Z,37.87
2023-04-06T14:53:49.704Z,35.83
2023-04-06T14:56:22.429Z,37.19
2023-04-06T14:58:51.866Z,37.58
2023-04-06T15:01:21.640Z,38.48
2023-04-06T15:03:50.478Z,38.26
2023-04-06T15:06:21.804Z,36.67
2023-04-06T15:08:50.565Z,36.86
2023-04-06T15:11:18.836Z,37.05
2023-04-06T15:13:47.426Z,37.33
2023-04-06T15:16:16.602Z,38.45
2023-04-06T15:18:44.979Z,37.51
2023-04-06T15:21:13.265Z,38.88
2023-04-06T15:23:43.005Z,38.79
2023-04-06T15:26:11.461Z,38.46
2023-04-06T15:28:39.870Z,39.31
2023-04-06T15:31:28.242Z,38.16
2023-04-06T15:34:04.336Z,38.14
2023-04-06T15:36:32.507Z,38.66
2023-04-06T15:39:02.994Z,37.20
2023-04-06T15:41:31.798Z,34.72
2023-04-06T15:43:59.964Z,33.66
2023-04-06T15:46:29.019Z,34.63
2023-04-06T15:48:57.574Z,38.11
2023-04-06T15:51:26.450Z,31.64
2023-04-06T15:53:54.902Z,32.94
2023-04-06T15:56:24.407Z,30.46
2023-04-06T15:58:52.497Z,33.69
2023-04-06T16:01:20.818Z,30.48
2023-04-06T16:03:49.735Z,31.78
2023-04-06T16:06:18.299Z,32.99
2023-04-06T16:08:46.568Z,32.33
2023-04-06T16:11:15.043Z,32.73
2023-04-06T16:13:47.352Z,34.14
2023-04-06T16:16:21.613Z,34.03
2023-04-06T16:18:50.662Z,33.68
2023-04-06T16:21:20.017Z,34.55
2023-04-06T16:23:48.556Z,35.20
2023-04-06T16:26:18.144Z,34.56
2023-04-06T16:28:48.456Z,35.42
2023-04-06T16:31:21.688Z,35.96
2023-04-06T16:33:50.816Z,35.79
2023-04-06T16:36:24.436Z,34.40
2023-04-06T16:38:53.496Z,35.55
2023-04-06T16:41:21.848Z,35.59
2023-04-06T16:43:51.991Z,35.15
2023-04-06T16:46:20.696Z,34.72
2023-04-06T16:48:48.814Z,36.15
2023-04-06T16:51:18.972Z,37.04
2023-04-06T16:54:13.772Z,36.59
2023-04-06T16:56:42.466Z,37.81
2023-04-06T16:59:11.963Z,36.98
2023-04-06T17:01:40.756Z,36.10
2023-04-06T17:04:09.446Z,36.17
2023-04-06T17:06:40.873Z,36.43
2023-04-06T17:09:09.388Z,36.93
2023-04-06T17:11:46.050Z,37.34
2023-04-06T17:14:19.161Z,39.20
2023-04-06T17:16:48.075Z,39.82
2023-04-06T17:19:41.480Z,37.45
2023-04-06T17:22:09.732Z,37.80
2023-04-06T17:24:38.005Z,41.17
2023-04-06T17:27:06.843Z,39.70
2023-04-06T17:29:38.158Z,39.56
2023-04-06T17:32:07.818Z,41.45
2023-04-06T17:34:36.732Z,43.77
2023-04-06T17:37:05.882Z,43.44
2023-04-06T17:39:34.395Z,44.95
2023-04-06T17:42:04.685Z,46.92
2023-04-06T17:44:33.312Z,47.40
2023-04-06T17:47:02.793Z,48.01
2023-04-06T17:49:32.918Z,48.19
2023-04-06T17:52:01.371Z,49.17
2023-04-06T17:54:29.463Z,49.09
2023-04-06T17:56:57.669Z,52.25
2023-04-06T17:59:25.959Z,52.59
2023-04-06T18:01:54.594Z,52.77
2023-04-06T18:04:24.498Z,52.33
2023-04-06T18:06:54.282Z,53.53
2023-04-06T18:09:22.395Z,53.92
2023-04-06T18:11:50.927Z,55.11
2023-04-06T18:14:19.655Z,54.91
2023-04-06T18:16:47.732Z,56.15
2023-04-06T18:19:16.278Z,56.22
2023-04-06T18:21:46.800Z,57.58
2023-04-06T18:24:27.208Z,58.32
2023-04-06T18:27:01.521Z,58.41
2023-04-06T18:29:29.639Z,58.15
2023-04-06T18:31:57.949Z,57.67
2023-04-06T18:34:26.536Z,58.96
2023-04-06T18:36:56.179Z,59.59
2023-04-06T18:39:25.002Z,60.75
2023-04-06T18:41:53.506Z,61.36
2023-04-06T18:44:21.749Z,61.85
2023-04-06T18:46:52.543Z,61.10
2023-04-06T18:49:23.122Z,61.38
2023-04-06T18:51:53.741Z,61.87
2023-04-06T18:54:23.581Z,61.36
2023-04-06T18:56:51.907Z,60.79
2023-04-06T18:59:20.191Z,61.18
2023-04-06T19:01:51.216Z,61.95
2023-04-06T19:04:20.054Z,62.97
2023-04-06T19:06:48.458Z,62.90
2023-04-06T19:09:16.873Z,63.94
2023-04-06T19:11:46.771Z,63.48
2023-04-06T19:14:15.733Z,63.28
2023-04-06T19:16:52.383Z,63.67
2023-04-06T19:19:21.544Z,65.93
2023-04-06T19:21:49.736Z,67.73
2023-04-06T19:24:18.725Z,70.67
2023-04-06T19:26:48.728Z,70.79
2023-04-06T19:29:17.000Z,70.30
2023-04-06T19:31:45.570Z,72.23
2023-04-06T19:34:17.690Z,74.71
2023-04-06T19:36:46.542Z,74.89
2023-04-06T19:39:17.281Z,75.07
2023-04-06T19:41:45.584Z,74.62
2023-04-06T19:44:15.482Z,74.01
2023-04-06T19:46:46.498Z,74.50
2023-04-06T19:49:14.979Z,74.71
2023-04-06T19:51:43.425Z,75.13
2023-04-06T19:54:12.310Z,75.81
2023-04-06T19:56:41.259Z,75.54
2023-04-06T19:59:11.143Z,75.59
2023-04-06T20:01:41.005Z,76.13
2023-04-06T20:04:12.635Z,74.97
2023-04-06T20:06:41.224Z,75.06
2023-04-06T20:09:09.504Z,75.16
2023-04-06T20:11:37.917Z,74.83
2023-04-06T20:14:06.158Z,74.38
2023-04-06T20:16:34.998Z,73.49
2023-04-06T20:19:04.792Z,74.00
2023-04-06T20:21:33.837Z,73.64
2023-04-06T20:24:02.233Z,74.54
2023-04-06T20:26:30.609Z,74.91
2023-04-06T20:28:58.934Z,74.76
2023-04-06T20:31:45.017Z,74.59
2023-04-06T20:34:16.499Z,73.59
2023-04-06T20:36:45.401Z,72.80
2023-04-06T20:39:13.466Z,72.74
2023-04-06T20:41:42.434Z,71.93
2023-04-06T20:44:10.792Z,72.06
2023-04-06T20:46:38.979Z,71.57
2023-04-06T20:49:07.188Z,71.85
2023-04-06T20:55:54.094Z,72.16
2023-04-06T20:58:49.014Z,72.15
2023-04-06T21:01:18.623Z,72.02
2023-04-06T21:03:46.878Z,71.46
2023-04-06T21:06:15.277Z,72.07
2023-04-06T21:08:43.932Z,72.52
2023-04-06T21:11:14.133Z,72.59
2023-04-06T21:13:42.465Z,72.35
2023-04-06T21:16:11.876Z,72.03
2023-04-06T21:18:40.841Z,71.68
2023-04-06T21:21:09.024Z,71.93
2023-04-06T21:23:37.331Z,71.90
2023-04-06T21:26:06.128Z,72.35
2023-04-06T21:28:35.852Z,71.81
2023-04-06T21:31:08.854Z,71.89
2023-04-06T21:33:37.301Z,71.90
2023-04-06T21:36:07.029Z,72.12
2023-04-06T21:38:36.789Z,71.87
2023-04-06T21:41:05.010Z,72.49
2023-04-06T21:43:33.711Z,72.18
2023-04-06T21:46:03.728Z,72.60
2023-04-06T21:48:32.220Z,74.04
2023-04-06T21:51:00.864Z,77.65
2023-04-06T21:53:29.264Z,76.79
2023-04-06T21:55:57.918Z,77.27
2023-04-06T21:58:26.129Z,76.25
2023-04-06T22:00:54.981Z,76.09
2023-04-06T22:03:25.822Z,75.49
2023-04-06T22:05:54.473Z,75.81
2023-04-06T22:08:33.750Z,75.18
2023-04-06T22:11:09.532Z,75.03
2023-04-06T22:13:39.318Z,76.78
2023-04-06T22:16:08.756Z,76.50
2023-04-06T22:18:39.411Z,76.20
2023-04-06T22:21:08.291Z,76.21
2023-04-06T22:23:42.248Z,75.75
2023-04-06T22:26:11.126Z,75.76
2023-04-06T22:28:39.659Z,75.64
2023-04-06T22:31:07.932Z,76.21
2023-04-06T22:33:36.172Z,76.57
2023-04-06T22:36:06.509Z,77.11
2023-04-06T22:38:34.570Z,77.76
2023-04-06T22:41:03.055Z,77.72
2023-04-06T22:43:31.382Z,77.75
2023-04-06T22:45:59.564Z,77.71
2023-04-06T22:48:27.779Z,78.10
2023-04-06T22:50:56.127Z,78.26
2023-04-06T22:53:25.657Z,78.04
2023-04-06T22:55:53.921Z,78.77
2023-04-06T22:58:22.197Z,78.60
2023-04-06T23:00:50.764Z,78.44
2023-04-06T23:03:19.614Z,78.45
2023-04-06T23:05:48.114Z,78.37
2023-04-06T23:08:16.616Z,79.01
2023-04-06T23:10:46.510Z,78.64
2023-04-06T23:13:14.954Z,79.38
2023-04-06T23:15:43.997Z,80.93
2023-04-06T23:18:12.069Z,80.99
2023-04-06T23:20:41.174Z,81.19
2023-04-06T23:23:09.414Z,81.31
2023-04-06T23:25:37.510Z,80.91
2023-04-06T23:28:07.025Z,79.97
2023-04-06T23:30:35.281Z,79.82
2023-04-06T23:33:03.962Z,79.53
2023-04-06T23:35:32.460Z,79.15
2023-04-06T23:38:00.662Z,79.10
2023-04-06T23:40:28.792Z,78.50
2023-04-06T23:42:56.805Z,78.67
2023-04-06T23:45:26.801Z,78.03
2023-04-06T23:47:55.441Z,78.16
2023-04-06T23:50:24.208Z,78.29
2023-04-06T23:52:52.954Z,78.34
2023-04-06T23:55:21.753Z,78.25
2023-04-06T23:57:50.194Z,78.95
